Etusivu
METAR-TAF:

METAR-TAF

Lentoasemat :

Ørland, Norja

Leveyspiiri: 63-42N, Pituuspiiri: 009-36E, korkeus merenpinnasta: 0 m

Tämänhetkinen sää

Tämä raportti tehtiin 37 minuuttia sitten, kello 22.50 UTC
Tuuli 10 kn idästä/kaakosta
Lämpötila 5°C
Kosteus 65%
Ilmanpaine 1033 hPa
Näkyvyys 10 km tai enemmän
Muutamia pilviä 1500 ft:n korkeudessa

METAR: ENOL 202250Z 11010KT 9999 FEW015 05/M01 Q1033

Aika: 00:27 (23:27 UTC)

Sääennuste

Ennuste voimassa 20. päivästä klo 18 UTC - 21. päivään klo 18 UTC
Tuuli 8 kn idästä
Näkyvyys 10 km tai enemmän
Muutamia pilviä 1200 ft:n korkeudessa
Ajoittain
21. päivästä klo 00 UTC - 21. päivään klo 10 UTC
Tuuli 20 kn kaakosta puuskistuen 30 kn:hen

TAF: ENOL 2018/2118 08008KT 9999 FEW012 TEMPO 2100/2110 14020G30KT

Säähavainnot ja -ennusteet yli 4000 lentoasemalta (METAR- ja TAF-raportit).

Käytössä olevat sääasemat on merkitty karttaan keltaisilla ja punaisilla pisteillä.

Aseta hiiri pisteen päälle nähdäksesi sääaseman nimen.

Klikkaa sitten nähdäksesi säähavainnot ja -ennusteet.

Kartan vaihtaminen: klikkaa mustalla rastilla varustettuja vihreitä pisteitä, niin voit zoomata sisään; viivalla varustettua vihreää pistettä, niin voit zoomata ulos tai vihreitä nuolia, niin pääset viereisille kartoille.


METAR-TAF: